createdAt,value
2018-01-27T00:00:26.223Z,1019.94
2018-01-27T00:01:06.789Z,1019.97
2018-01-27T00:01:47.375Z,1020
2018-01-27T00:02:27.949Z,1019.98
2018-01-27T00:03:08.505Z,1019.98
2018-01-27T00:03:49.067Z,1019.95
2018-01-27T00:04:29.636Z,1019.99
2018-01-27T00:05:10.191Z,1020.01
2018-01-27T00:05:50.759Z,1019.99
2018-01-27T00:06:31.348Z,1020
2018-01-27T00:07:11.927Z,1020.06
2018-01-27T00:07:52.576Z,1020.06
2018-01-27T00:08:33.138Z,1020.04
2018-01-27T00:09:13.718Z,1020.05
2018-01-27T00:09:54.272Z,1020.03
2018-01-27T00:10:34.830Z,1020.04
2018-01-27T00:11:15.388Z,1020.08
2018-01-27T00:11:55.938Z,1020.1
2018-01-27T00:12:36.511Z,1020.08
2018-01-27T00:13:17.091Z,1020.09
2018-01-27T00:13:57.658Z,1020.08
2018-01-27T00:14:38.209Z,1020.04
2018-01-27T00:15:18.816Z,1020.05
2018-01-27T00:15:59.336Z,1020.03
2018-01-27T00:16:39.902Z,1020.04
2018-01-27T00:17:20.520Z,1020.03
2018-01-27T00:18:01.073Z,1019.98
2018-01-27T00:18:41.635Z,1019.97
2018-01-27T00:19:22.231Z,1020.03
2018-01-27T00:20:02.813Z,1020.02
2018-01-27T00:20:43.375Z,1019.99
2018-01-27T00:21:23.929Z,1020.03
2018-01-27T00:22:04.503Z,1020.02
2018-01-27T00:22:45.072Z,1020.02
2018-01-27T00:23:25.645Z,1020.05
2018-01-27T00:24:06.225Z,1020.03
2018-01-27T00:24:46.788Z,1020.05
2018-01-27T00:25:27.349Z,1020.04
2018-01-27T00:26:07.912Z,1020.11
2018-01-27T00:26:48.485Z,1020.09
2018-01-27T00:27:29.066Z,1020.11
2018-01-27T00:28:09.653Z,1020.07
2018-01-27T00:28:50.223Z,1020.07
2018-01-27T00:29:30.788Z,1020.05
2018-01-27T00:30:11.360Z,1020.03
2018-01-27T00:30:51.950Z,1020.02
2018-01-27T00:31:32.544Z,1020.03
2018-01-27T00:32:13.101Z,1020.02
2018-01-27T00:32:53.696Z,1020.05
2018-01-27T00:33:34.270Z,1020.11
2018-01-27T00:34:14.850Z,1020.04
2018-01-27T00:34:55.475Z,1020.1
2018-01-27T00:35:36.036Z,1020.1
2018-01-27T00:36:16.608Z,1020.13
2018-01-27T00:36:57.185Z,1020.12
2018-01-27T00:37:37.757Z,1020.14
2018-01-27T00:38:18.311Z,1020.16
2018-01-27T00:38:58.865Z,1020.13
2018-01-27T00:39:39.443Z,1020.16
2018-01-27T00:40:20.003Z,1020.17
2018-01-27T00:41:00.574Z,1020.18
2018-01-27T00:41:41.126Z,1020.22
2018-01-27T00:42:21.705Z,1020.23
2018-01-27T00:43:02.289Z,1020.23
2018-01-27T00:43:42.877Z,1020.26
2018-01-27T00:44:23.446Z,1020.24
2018-01-27T00:45:04.018Z,1020.28
2018-01-27T00:45:44.574Z,1020.29
2018-01-27T00:46:25.132Z,1020.27
2018-01-27T00:47:05.696Z,1020.29
2018-01-27T00:47:46.258Z,1020.28
2018-01-27T00:48:26.817Z,1020.29
2018-01-27T00:49:07.390Z,1020.29
2018-01-27T00:49:47.973Z,1020.3
2018-01-27T00:50:28.535Z,1020.3
2018-01-27T00:51:09.097Z,1020.33
2018-01-27T00:51:49.676Z,1020.32
2018-01-27T00:52:30.257Z,1020.32
2018-01-27T00:53:10.831Z,1020.26
2018-01-27T00:53:51.396Z,1020.28
2018-01-27T00:54:31.983Z,1020.31
2018-01-27T00:55:12.555Z,1020.27
2018-01-27T00:55:53.110Z,1020.28
2018-01-27T00:56:33.668Z,1020.25
2018-01-27T00:57:14.226Z,1020.26
2018-01-27T00:57:54.787Z,1020.25
2018-01-27T00:58:35.339Z,1020.25
2018-01-27T00:59:15.906Z,1020.22
2018-01-27T00:59:56.475Z,1020.23
2018-01-27T01:00:37.028Z,1020.25
2018-01-27T01:01:17.618Z,1020.24
2018-01-27T01:01:58.175Z,1020.26
2018-01-27T01:04:11.002Z,1020.33
2018-01-27T01:04:51.615Z,1020.37
2018-01-27T01:05:32.191Z,1020.35
2018-01-27T01:06:12.808Z,1020.34
2018-01-27T01:06:53.402Z,1020.37
2018-01-27T01:07:33.975Z,1020.35
2018-01-27T01:08:14.574Z,1020.35
2018-01-27T01:08:55.170Z,1020.37
2018-01-27T01:09:35.771Z,1020.37
2018-01-27T01:10:16.356Z,1020.38
2018-01-27T01:10:56.934Z,1020.38
2018-01-27T01:11:37.555Z,1020.4
2018-01-27T01:12:18.142Z,1020.38
2018-01-27T01:12:58.714Z,1020.42
2018-01-27T01:13:39.297Z,1020.4
2018-01-27T01:14:19.868Z,1020.43
2018-01-27T01:15:00.442Z,1020.43
2018-01-27T01:15:41.009Z,1020.41
2018-01-27T01:16:21.590Z,1020.44
2018-01-27T01:17:02.181Z,1020.44
2018-01-27T01:17:42.795Z,1020.45
2018-01-27T01:18:23.386Z,1020.44
2018-01-27T01:19:03.982Z,1020.45
2018-01-27T01:19:44.572Z,1020.42
2018-01-27T01:20:25.172Z,1020.43
2018-01-27T01:21:05.740Z,1020.42
2018-01-27T01:21:46.321Z,1020.42
2018-01-27T01:22:26.912Z,1020.38
2018-01-27T01:23:07.470Z,1020.41
2018-01-27T01:23:48.072Z,1020.46
2018-01-27T01:24:28.669Z,1020.37
2018-01-27T01:25:09.261Z,1020.42
2018-01-27T01:25:49.858Z,1020.41
2018-01-27T01:26:30.452Z,1020.45
2018-01-27T01:27:11.047Z,1020.41
2018-01-27T01:27:51.675Z,1020.44
2018-01-27T01:28:32.260Z,1020.45
2018-01-27T01:29:12.827Z,1020.43
2018-01-27T01:29:53.435Z,1020.47
2018-01-27T01:30:34.039Z,1020.47
2018-01-27T01:31:14.622Z,1020.48
2018-01-27T01:31:55.215Z,1020.48
2018-01-27T01:32:35.799Z,1020.5
2018-01-27T01:33:16.380Z,1020.53
2018-01-27T01:33:56.945Z,1020.55
2018-01-27T01:34:37.531Z,1020.52
2018-01-27T01:35:18.118Z,1020.62
2018-01-27T01:35:58.684Z,1020.59
2018-01-27T01:36:39.257Z,1020.6
2018-01-27T01:37:19.835Z,1020.64
2018-01-27T01:38:00.401Z,1020.63
2018-01-27T01:38:40.994Z,1020.64
2018-01-27T01:39:21.569Z,1020.66
2018-01-27T01:40:02.141Z,1020.62
2018-01-27T01:40:42.733Z,1020.66
2018-01-27T01:41:23.313Z,1020.66
2018-01-27T01:42:03.884Z,1020.63
2018-01-27T01:42:44.470Z,1020.62
2018-01-27T01:43:25.074Z,1020.59
2018-01-27T01:44:05.672Z,1020.65
2018-01-27T01:44:46.240Z,1020.65
2018-01-27T01:45:26.825Z,1020.64
2018-01-27T01:46:07.423Z,1020.64
2018-01-27T01:46:48.048Z,1020.65
2018-01-27T01:47:28.646Z,1020.66
2018-01-27T01:48:09.215Z,1020.68
2018-01-27T01:48:49.790Z,1020.66
2018-01-27T01:49:30.379Z,1020.69
2018-01-27T01:50:10.962Z,1020.71
2018-01-27T01:50:51.547Z,1020.73
2018-01-27T01:51:32.156Z,1020.72
2018-01-27T01:52:12.772Z,1020.74
2018-01-27T01:52:53.329Z,1020.77
2018-01-27T01:53:33.919Z,1020.81
2018-01-27T01:54:14.501Z,1020.78
2018-01-27T01:54:55.128Z,1020.77
2018-01-27T01:55:35.724Z,1020.77
2018-01-27T01:56:16.320Z,1020.8
2018-01-27T01:56:56.897Z,1020.8
2018-01-27T01:57:37.480Z,1020.78
2018-01-27T01:58:18.080Z,1020.73
2018-01-27T01:58:58.690Z,1020.73
2018-01-27T01:59:39.280Z,1020.73
2018-01-27T02:00:19.858Z,1020.74
2018-01-27T02:01:00.446Z,1020.72
2018-01-27T02:01:41.057Z,1020.73
2018-01-27T02:02:21.644Z,1020.71
2018-01-27T02:03:02.254Z,1020.75
2018-01-27T02:03:42.840Z,1020.75
2018-01-27T02:04:23.433Z,1020.79
2018-01-27T02:05:04.075Z,1020.81
2018-01-27T02:05:44.655Z,1020.83
2018-01-27T02:06:25.234Z,1020.79
2018-01-27T02:07:05.818Z,1020.82
2018-01-27T02:07:46.402Z,1020.86
2018-01-27T02:08:26.995Z,1020.91
2018-01-27T02:09:07.570Z,1020.9
2018-01-27T02:09:48.167Z,1020.88
2018-01-27T02:10:28.734Z,1020.87
2018-01-27T02:11:09.316Z,1020.86
2018-01-27T02:11:49.913Z,1020.89
2018-01-27T02:12:30.524Z,1020.87
2018-01-27T02:13:11.147Z,1020.84
2018-01-27T02:13:51.739Z,1020.85
2018-01-27T02:14:32.340Z,1020.88
2018-01-27T02:15:12.962Z,1020.88
2018-01-27T02:15:53.558Z,1020.89
2018-01-27T02:16:34.183Z,1020.85
2018-01-27T02:17:14.732Z,1020.86
2018-01-27T02:17:55.357Z,1020.89
2018-01-27T02:18:35.928Z,1020.88
2018-01-27T02:19:16.525Z,1020.91
2018-01-27T02:19:57.106Z,1020.86
2018-01-27T02:20:37.707Z,1020.88
2018-01-27T02:21:18.316Z,1020.86
2018-01-27T02:21:58.900Z,1020.85
2018-01-27T02:22:39.493Z,1020.82
2018-01-27T02:23:20.087Z,1020.87
2018-01-27T02:24:00.697Z,1020.86
2018-01-27T02:24:41.280Z,1020.83
2018-01-27T02:25:21.899Z,1020.89
2018-01-27T02:26:02.490Z,1020.85
2018-01-27T02:26:43.089Z,1020.91
2018-01-27T02:27:23.699Z,1020.94
2018-01-27T02:28:04.292Z,1020.9
2018-01-27T02:28:44.897Z,1020.9
2018-01-27T02:29:25.491Z,1020.9
2018-01-27T02:30:06.083Z,1020.93
2018-01-27T02:30:46.697Z,1020.92
2018-01-27T02:31:27.285Z,1020.96
2018-01-27T02:32:07.867Z,1020.97
2018-01-27T02:32:48.458Z,1021.01
2018-01-27T02:33:29.041Z,1021.03
2018-01-27T02:34:09.647Z,1021.06
2018-01-27T02:34:50.278Z,1021.05
2018-01-27T02:35:30.875Z,1021.03
2018-01-27T02:36:11.473Z,1021.03
2018-01-27T02:36:52.057Z,1021.02
2018-01-27T02:37:32.642Z,1021.03
2018-01-27T02:38:13.250Z,1021.05
2018-01-27T02:38:53.845Z,1021.07
2018-01-27T02:39:34.428Z,1021.04
2018-01-27T02:40:15.008Z,1021.06
2018-01-27T02:40:55.611Z,1021.07
2018-01-27T02:41:36.227Z,1021.07
2018-01-27T02:42:16.827Z,1021.09
2018-01-27T02:42:57.401Z,1021.13
2018-01-27T02:43:37.996Z,1021.15
2018-01-27T02:44:18.590Z,1021.12
2018-01-27T02:44:59.178Z,1021.11
2018-01-27T02:45:39.770Z,1021.15
2018-01-27T02:46:20.428Z,1021.14
2018-01-27T02:47:00.976Z,1021.17
2018-01-27T02:47:41.728Z,1021.16
2018-01-27T02:48:22.316Z,1021.2
2018-01-27T02:49:02.927Z,1021.16
2018-01-27T02:49:43.508Z,1021.19
2018-01-27T02:50:24.079Z,1021.19
2018-01-27T02:51:04.695Z,1021.17
2018-01-27T02:51:45.306Z,1021.2
2018-01-27T02:52:25.892Z,1021.22
2018-01-27T02:53:06.551Z,1021.21
2018-01-27T02:53:47.103Z,1021.2
2018-01-27T02:54:27.714Z,1021.21
2018-01-27T02:55:08.326Z,1021.22
2018-01-27T02:55:48.936Z,1021.2
2018-01-27T02:56:29.531Z,1021.23
2018-01-27T02:57:10.114Z,1021.19
2018-01-27T02:57:50.737Z,1021.24
2018-01-27T02:58:31.329Z,1021.24
2018-01-27T02:59:11.941Z,1021.22
2018-01-27T02:59:52.539Z,1021.21
2018-01-27T03:00:33.158Z,1021.22
2018-01-27T03:01:13.751Z,1021.24
2018-01-27T03:01:54.348Z,1021.28
2018-01-27T03:02:34.982Z,1021.28
2018-01-27T03:03:15.587Z,1021.26
2018-01-27T03:03:56.175Z,1021.28
2018-01-27T03:04:36.817Z,1021.28
2018-01-27T03:05:17.403Z,1021.24
2018-01-27T03:05:57.986Z,1021.26
2018-01-27T03:06:38.589Z,1021.29
2018-01-27T03:07:19.200Z,1021.27
2018-01-27T03:07:59.776Z,1021.28
2018-01-27T03:08:40.385Z,1021.29
2018-01-27T03:09:21.000Z,1021.29
2018-01-27T03:10:01.600Z,1021.32
2018-01-27T03:10:42.187Z,1021.36
2018-01-27T03:11:22.774Z,1021.31
2018-01-27T03:12:03.360Z,1021.39
2018-01-27T03:12:43.968Z,1021.39
2018-01-27T03:13:24.568Z,1021.41
2018-01-27T03:14:05.179Z,1021.43
2018-01-27T03:14:45.773Z,1021.46
2018-01-27T03:15:26.380Z,1021.42
2018-01-27T03:16:06.987Z,1021.42
2018-01-27T03:16:47.588Z,1021.44
2018-01-27T03:17:28.190Z,1021.47
2018-01-27T03:18:08.815Z,1021.42
2018-01-27T03:18:49.416Z,1021.49
2018-01-27T03:19:30.112Z,1021.51
2018-01-27T03:20:10.773Z,1021.52
2018-01-27T03:20:51.374Z,1021.53
2018-01-27T03:21:31.971Z,1021.51
2018-01-27T03:22:12.631Z,1021.53
2018-01-27T03:22:53.263Z,1021.52
2018-01-27T03:23:33.925Z,1021.53
2018-01-27T03:24:14.605Z,1021.53
2018-01-27T03:24:55.162Z,1021.57
2018-01-27T03:25:35.757Z,1021.5
2018-01-27T03:26:16.356Z,1021.53
2018-01-27T03:26:56.932Z,1021.54
2018-01-27T03:27:37.508Z,1021.55
2018-01-27T03:28:18.108Z,1021.54
2018-01-27T03:28:58.711Z,1021.55
2018-01-27T03:29:39.299Z,1021.52
2018-01-27T03:30:19.903Z,1021.59
2018-01-27T03:31:00.517Z,1021.57
2018-01-27T03:31:41.108Z,1021.6
2018-01-27T03:32:21.714Z,1021.61
2018-01-27T03:33:02.331Z,1021.63
2018-01-27T03:33:42.917Z,1021.59
2018-01-27T03:34:23.511Z,1021.63
2018-01-27T03:35:04.111Z,1021.65
2018-01-27T03:35:44.686Z,1021.65
2018-01-27T03:36:25.269Z,1021.67
2018-01-27T03:37:05.856Z,1021.65
2018-01-27T03:37:46.471Z,1021.65
2018-01-27T03:38:27.065Z,1021.71
2018-01-27T03:39:07.673Z,1021.77
2018-01-27T03:39:48.281Z,1021.76
2018-01-27T03:40:28.860Z,1021.75
2018-01-27T03:41:09.439Z,1021.74
2018-01-27T03:41:50.056Z,1021.71
2018-01-27T03:42:30.657Z,1021.75
2018-01-27T03:43:11.240Z,1021.75
2018-01-27T03:43:51.815Z,1021.75
2018-01-27T03:44:32.412Z,1021.76
2018-01-27T03:45:13.012Z,1021.77
2018-01-27T03:45:53.593Z,1021.77
2018-01-27T03:46:34.186Z,1021.82
2018-01-27T03:47:14.794Z,1021.84
2018-01-27T03:47:55.404Z,1021.88
2018-01-27T03:48:35.983Z,1021.89
2018-01-27T03:49:16.547Z,1021.87
2018-01-27T03:49:57.151Z,1021.86
2018-01-27T03:50:37.767Z,1021.88
2018-01-27T03:51:18.368Z,1021.88
2018-01-27T03:51:58.958Z,1021.88
2018-01-27T03:52:39.581Z,1021.9
2018-01-27T03:53:20.175Z,1021.88
2018-01-27T03:54:00.790Z,1021.87
2018-01-27T03:54:41.396Z,1021.87
2018-01-27T03:55:21.991Z,1021.86
2018-01-27T03:56:02.576Z,1021.87
2018-01-27T03:56:43.184Z,1021.86
2018-01-27T03:57:23.772Z,1021.87
2018-01-27T03:58:04.354Z,1021.89
2018-01-27T03:58:44.977Z,1021.91
2018-01-27T03:59:25.612Z,1021.93
2018-01-27T04:00:06.220Z,1021.93
2018-01-27T04:00:46.814Z,1021.93
2018-01-27T04:01:27.438Z,1021.96
2018-01-27T04:02:08.025Z,1021.94
2018-01-27T04:02:48.619Z,1021.94
2018-01-27T04:03:29.177Z,1021.94
2018-01-27T04:04:09.780Z,1021.96
2018-01-27T04:04:50.395Z,1021.97
2018-01-27T04:05:31.004Z,1022
2018-01-27T04:06:11.601Z,1022
2018-01-27T04:06:52.207Z,1022.05
2018-01-27T04:07:32.794Z,1022.04
2018-01-27T04:08:13.401Z,1022.03
2018-01-27T04:08:54.040Z,1022.05
2018-01-27T04:09:34.615Z,1022.06
2018-01-27T04:10:15.217Z,1022.07
2018-01-27T04:10:55.832Z,1022.08
2018-01-27T04:11:36.438Z,1022.1
2018-01-27T04:12:17.060Z,1022.1
2018-01-27T04:12:57.670Z,1022.07
2018-01-27T04:13:38.261Z,1022.09
2018-01-27T04:14:18.852Z,1022.14
2018-01-27T04:14:59.484Z,1022.13
2018-01-27T04:15:40.101Z,1022.09
2018-01-27T04:16:20.706Z,1022.13
2018-01-27T04:17:01.322Z,1022.08
2018-01-27T04:17:41.920Z,1022.07
2018-01-27T04:18:22.531Z,1022.1
2018-01-27T04:19:03.125Z,1022.09
2018-01-27T04:19:43.758Z,1022.07
2018-01-27T04:20:24.336Z,1022.08
2018-01-27T04:21:04.918Z,1022.09
2018-01-27T04:21:45.531Z,1022.11
2018-01-27T04:22:26.146Z,1022.09
2018-01-27T04:23:06.751Z,1022.1
2018-01-27T04:23:47.344Z,1022.13
2018-01-27T04:24:27.924Z,1022.09
2018-01-27T04:25:08.523Z,1022.12
2018-01-27T04:25:49.113Z,1022.13
2018-01-27T04:26:29.720Z,1022.14
2018-01-27T04:27:10.332Z,1022.16
2018-01-27T04:27:50.931Z,1022.14
2018-01-27T04:28:31.537Z,1022.18
2018-01-27T04:29:12.120Z,1022.14
2018-01-27T04:29:52.749Z,1022.16
2018-01-27T04:30:33.355Z,1022.17
2018-01-27T04:31:13.989Z,1022.19
2018-01-27T04:31:54.582Z,1022.19
2018-01-27T04:32:35.174Z,1022.21
2018-01-27T04:33:15.785Z,1022.24
2018-01-27T04:33:56.372Z,1022.22
2018-01-27T04:34:37.021Z,1022.2
2018-01-27T04:35:17.586Z,1022.22
2018-01-27T04:35:58.190Z,1022.25
2018-01-27T04:36:38.793Z,1022.28
2018-01-27T04:37:19.370Z,1022.27
2018-01-27T04:37:59.969Z,1022.31
2018-01-27T04:38:40.555Z,1022.27
2018-01-27T04:39:21.149Z,1022.28
2018-01-27T04:40:01.727Z,1022.25
2018-01-27T04:40:42.347Z,1022.24
2018-01-27T04:41:22.941Z,1022.24
2018-01-27T04:42:03.536Z,1022.28
2018-01-27T04:42:44.126Z,1022.19
2018-01-27T04:43:24.748Z,1022.22
2018-01-27T04:44:05.335Z,1022.25
2018-01-27T04:44:45.944Z,1022.25
2018-01-27T04:45:26.513Z,1022.29
2018-01-27T04:46:07.123Z,1022.28
2018-01-27T04:46:47.702Z,1022.3
2018-01-27T04:47:28.287Z,1022.32
2018-01-27T04:48:08.916Z,1022.32
2018-01-27T04:48:49.504Z,1022.33
2018-01-27T04:49:30.105Z,1022.32
2018-01-27T04:50:10.722Z,1022.35
2018-01-27T04:50:51.328Z,1022.38
2018-01-27T04:51:31.916Z,1022.35
2018-01-27T04:52:12.530Z,1022.36
2018-01-27T04:52:53.145Z,1022.39
2018-01-27T04:53:33.732Z,1022.36
2018-01-27T04:54:14.344Z,1022.38
2018-01-27T04:54:54.963Z,1022.41
2018-01-27T04:55:35.568Z,1022.4
2018-01-27T04:56:16.212Z,1022.42
2018-01-27T04:56:56.814Z,1022.45
2018-01-27T04:57:37.385Z,1022.41
2018-01-27T04:58:17.994Z,1022.41
2018-01-27T04:58:58.571Z,1022.44
2018-01-27T04:59:39.197Z,1022.48
2018-01-27T05:00:19.794Z,1022.49
2018-01-27T05:01:00.383Z,1022.53
2018-01-27T05:01:40.996Z,1022.52
2018-01-27T05:02:21.596Z,1022.48
2018-01-27T05:03:02.182Z,1022.53
2018-01-27T05:03:42.809Z,1022.49
2018-01-27T05:04:23.390Z,1022.46
2018-01-27T05:05:04.002Z,1022.5
2018-01-27T05:05:44.621Z,1022.48
2018-01-27T05:06:25.196Z,1022.49
2018-01-27T05:07:05.831Z,1022.51
2018-01-27T05:07:46.426Z,1022.43
2018-01-27T05:08:27.000Z,1022.48
2018-01-27T05:09:07.588Z,1022.52
2018-01-27T05:09:48.210Z,1022.49
2018-01-27T05:10:28.842Z,1022.52
2018-01-27T05:11:09.467Z,1022.51
2018-01-27T05:11:50.085Z,1022.53
2018-01-27T05:12:30.688Z,1022.57
2018-01-27T05:13:11.296Z,1022.57
2018-01-27T05:13:51.894Z,1022.57
2018-01-27T05:14:32.498Z,1022.53
2018-01-27T05:15:13.091Z,1022.58
2018-01-27T05:15:53.686Z,1022.63
2018-01-27T05:16:34.305Z,1022.59
2018-01-27T05:17:14.908Z,1022.62
2018-01-27T05:17:55.515Z,1022.62
2018-01-27T05:18:36.101Z,1022.65
2018-01-27T05:19:16.708Z,1022.62
2018-01-27T05:19:57.318Z,1022.66
2018-01-27T05:20:37.905Z,1022.66
2018-01-27T05:21:18.507Z,1022.69
2018-01-27T05:21:59.103Z,1022.71
2018-01-27T05:22:39.695Z,1022.69
2018-01-27T05:23:20.323Z,1022.69
2018-01-27T05:24:00.917Z,1022.72
2018-01-27T05:24:41.506Z,1022.71
2018-01-27T05:25:22.102Z,1022.74
2018-01-27T05:26:02.677Z,1022.71
2018-01-27T05:26:43.282Z,1022.7
2018-01-27T05:27:23.874Z,1022.77
2018-01-27T05:28:04.481Z,1022.76
2018-01-27T05:28:45.056Z,1022.78
2018-01-27T05:29:25.630Z,1022.75
2018-01-27T05:30:06.212Z,1022.8
2018-01-27T05:30:46.874Z,1022.8
2018-01-27T05:31:27.472Z,1022.79
2018-01-27T05:32:08.094Z,1022.83
2018-01-27T05:32:48.683Z,1022.81
2018-01-27T05:33:29.281Z,1022.84
2018-01-27T05:34:09.878Z,1022.89
2018-01-27T05:34:50.476Z,1022.86
2018-01-27T05:35:31.087Z,1022.93
2018-01-27T05:36:11.669Z,1022.92
2018-01-27T05:36:52.275Z,1022.88
2018-01-27T05:37:32.893Z,1022.91
2018-01-27T05:38:13.498Z,1022.96
2018-01-27T05:38:54.080Z,1022.97
2018-01-27T05:39:34.722Z,1022.99
2018-01-27T05:40:15.304Z,1023.02
2018-01-27T05:40:55.895Z,1023.01
2018-01-27T05:41:36.479Z,1023.06
2018-01-27T05:42:17.082Z,1023.07
2018-01-27T05:42:57.677Z,1023.08
2018-01-27T05:43:38.280Z,1023.09
2018-01-27T05:44:18.873Z,1023.14
2018-01-27T05:44:59.487Z,1023.1
2018-01-27T05:45:40.099Z,1023.11
2018-01-27T05:46:20.692Z,1023.12
2018-01-27T05:47:01.260Z,1023.1
2018-01-27T05:47:41.894Z,1023.15
2018-01-27T05:48:22.475Z,1023.17
2018-01-27T05:49:03.074Z,1023.22
2018-01-27T05:49:43.674Z,1023.2
2018-01-27T05:50:24.288Z,1023.2
2018-01-27T05:51:04.881Z,1023.24
2018-01-27T05:51:45.495Z,1023.24
2018-01-27T05:52:26.096Z,1023.21
2018-01-27T05:53:06.709Z,1023.27
2018-01-27T05:53:47.299Z,1023.23
2018-01-27T05:54:27.901Z,1023.24
2018-01-27T05:55:08.502Z,1023.32
2018-01-27T05:55:49.094Z,1023.27
2018-01-27T05:56:29.693Z,1023.27
2018-01-27T05:57:10.310Z,1023.27
2018-01-27T05:57:50.913Z,1023.32
2018-01-27T05:58:31.509Z,1023.32
2018-01-27T05:59:12.113Z,1023.36
2018-01-27T05:59:52.725Z,1023.35
2018-01-27T06:00:33.310Z,1023.36
2018-01-27T06:01:13.933Z,1023.42
2018-01-27T06:01:54.557Z,1023.41
2018-01-27T06:02:35.152Z,1023.44
2018-01-27T06:03:15.769Z,1023.43
2018-01-27T06:03:56.368Z,1023.43
2018-01-27T06:04:36.975Z,1023.4
2018-01-27T06:05:17.595Z,1023.45
2018-01-27T06:05:58.205Z,1023.47
2018-01-27T06:06:38.788Z,1023.47
2018-01-27T06:07:19.383Z,1023.47
2018-01-27T06:07:59.995Z,1023.49
2018-01-27T06:08:40.588Z,1023.47
2018-01-27T06:09:21.221Z,1023.44
2018-01-27T06:10:01.833Z,1023.48
2018-01-27T06:10:42.471Z,1023.48
2018-01-27T06:11:23.113Z,1023.48
2018-01-27T06:12:03.818Z,1023.47
2018-01-27T06:12:44.410Z,1023.5
2018-01-27T06:13:25.007Z,1023.5
2018-01-27T06:14:05.602Z,1023.52
2018-01-27T06:14:46.304Z,1023.51
2018-01-27T06:15:26.892Z,1023.54
2018-01-27T06:16:07.501Z,1023.51
2018-01-27T06:16:48.133Z,1023.57
2018-01-27T06:17:28.769Z,1023.58
2018-01-27T06:18:09.378Z,1023.62
2018-01-27T06:18:49.977Z,1023.65
2018-01-27T06:19:30.566Z,1023.64
2018-01-27T06:20:11.176Z,1023.67
2018-01-27T06:20:51.792Z,1023.62
2018-01-27T06:21:32.397Z,1023.63
2018-01-27T06:22:13.013Z,1023.67
2018-01-27T06:22:53.668Z,1023.65
2018-01-27T06:23:34.268Z,1023.68
2018-01-27T06:24:14.866Z,1023.66
2018-01-27T06:24:55.456Z,1023.68
2018-01-27T06:25:36.081Z,1023.69
2018-01-27T06:26:16.706Z,1023.73
2018-01-27T06:26:57.319Z,1023.67
2018-01-27T06:27:37.915Z,1023.69
2018-01-27T06:28:18.531Z,1023.65
2018-01-27T06:28:59.106Z,1023.69
2018-01-27T06:29:39.700Z,1023.72
2018-01-27T06:30:20.306Z,1023.71
2018-01-27T06:31:00.912Z,1023.7
2018-01-27T06:31:41.572Z,1023.73
2018-01-27T06:32:22.179Z,1023.72
2018-01-27T06:33:02.792Z,1023.73
2018-01-27T06:33:43.422Z,1023.72
2018-01-27T06:34:24.030Z,1023.72
2018-01-27T06:35:04.660Z,1023.76
2018-01-27T06:35:45.276Z,1023.73
2018-01-27T06:36:25.884Z,1023.79
2018-01-27T06:37:06.494Z,1023.82
2018-01-27T06:37:47.097Z,1023.78
2018-01-27T06:38:27.730Z,1023.79
2018-01-27T06:39:08.294Z,1023.82
2018-01-27T06:39:48.890Z,1023.82
2018-01-27T06:40:29.465Z,1023.81
2018-01-27T06:41:10.093Z,1023.85
2018-01-27T06:41:50.724Z,1023.87
2018-01-27T06:42:31.372Z,1023.92
2018-01-27T06:43:11.950Z,1023.9
2018-01-27T06:43:52.603Z,1023.92
2018-01-27T06:44:33.200Z,1023.91
2018-01-27T06:45:13.845Z,1023.93
2018-01-27T06:45:54.431Z,1023.99
2018-01-27T06:46:35.036Z,1023.96
2018-01-27T06:47:15.626Z,1024.01
2018-01-27T06:47:56.225Z,1024.02
2018-01-27T06:48:36.841Z,1024
2018-01-27T06:49:17.415Z,1024.02
2018-01-27T06:49:58.052Z,1024.04
2018-01-27T06:50:38.689Z,1024.03
2018-01-27T06:51:19.276Z,1024.03
2018-01-27T06:51:59.858Z,1024.08
2018-01-27T06:52:40.700Z,1024.08
2018-01-27T06:53:21.300Z,1024.06
2018-01-27T06:54:01.917Z,1024.13
2018-01-27T06:54:42.527Z,1024.12
2018-01-27T06:55:23.129Z,1024.14
2018-01-27T06:56:03.729Z,1024.12
2018-01-27T06:56:44.325Z,1024.11
2018-01-27T06:57:25.009Z,1024.15
2018-01-27T06:58:05.597Z,1024.15
2018-01-27T06:58:46.227Z,1024.19
2018-01-27T06:59:26.818Z,1024.16
2018-01-27T07:00:07.424Z,1024.15
2018-01-27T07:00:48.041Z,1024.21
2018-01-27T07:01:28.629Z,1024.18
2018-01-27T07:02:09.230Z,1024.2
2018-01-27T07:02:49.858Z,1024.2
2018-01-27T07:03:30.458Z,1024.21
2018-01-27T07:04:11.042Z,1024.25
2018-01-27T07:04:51.716Z,1024.21
2018-01-27T07:05:32.352Z,1024.19
2018-01-27T07:06:12.984Z,1024.21
2018-01-27T07:06:53.604Z,1024.23
2018-01-27T07:07:34.195Z,1024.28
2018-01-27T07:08:14.804Z,1024.27
2018-01-27T07:08:55.396Z,1024.26
2018-01-27T07:09:35.990Z,1024.29
2018-01-27T07:10:16.640Z,1024.28
2018-01-27T07:10:57.272Z,1024.3
2018-01-27T07:11:37.876Z,1024.32
2018-01-27T07:12:18.484Z,1024.35
2018-01-27T07:12:59.077Z,1024.34
2018-01-27T07:13:39.696Z,1024.35
2018-01-27T07:14:20.329Z,1024.34
2018-01-27T07:15:00.933Z,1024.39
2018-01-27T07:15:41.543Z,1024.36
2018-01-27T07:16:22.143Z,1024.42
2018-01-27T07:17:02.757Z,1024.44
2018-01-27T07:17:43.365Z,1024.42
2018-01-27T07:18:23.987Z,1024.41
2018-01-27T07:19:04.618Z,1024.42
2018-01-27T07:19:45.211Z,1024.43
2018-01-27T07:20:25.795Z,1024.47
2018-01-27T07:21:06.463Z,1024.48
2018-01-27T07:21:47.075Z,1024.51
2018-01-27T07:22:27.734Z,1024.52
2018-01-27T07:23:08.429Z,1024.5
2018-01-27T07:23:49.075Z,1024.52
2018-01-27T07:24:29.714Z,1024.51
2018-01-27T07:26:42.540Z,1024.57
2018-01-27T07:27:23.115Z,1024.57
2018-01-27T07:28:03.713Z,1024.57
2018-01-27T07:28:44.278Z,1024.58
2018-01-27T07:29:24.853Z,1024.59
2018-01-27T07:30:05.440Z,1024.59
2018-01-27T07:30:46.071Z,1024.59
2018-01-27T07:31:26.671Z,1024.56
2018-01-27T07:32:07.254Z,1024.55
2018-01-27T07:32:47.888Z,1024.57
2018-01-27T07:33:28.469Z,1024.58
2018-01-27T07:34:09.095Z,1024.58
2018-01-27T07:34:49.774Z,1024.6
2018-01-27T07:35:30.331Z,1024.59
2018-01-27T07:36:10.941Z,1024.62
2018-01-27T07:36:51.544Z,1024.68
2018-01-27T07:37:32.144Z,1024.68
2018-01-27T07:38:12.755Z,1024.71
2018-01-27T07:38:53.365Z,1024.69
2018-01-27T07:39:33.994Z,1024.73
2018-01-27T07:40:14.592Z,1024.75
2018-01-27T07:40:55.224Z,1024.75
2018-01-27T07:41:35.827Z,1024.77
2018-01-27T07:42:16.421Z,1024.82
2018-01-27T07:42:57.005Z,1024.79
2018-01-27T07:43:37.618Z,1024.79
2018-01-27T07:44:18.230Z,1024.83
2018-01-27T07:44:58.864Z,1024.79
2018-01-27T07:45:39.462Z,1024.83
2018-01-27T07:46:20.070Z,1024.86
2018-01-27T07:47:00.667Z,1024.84
2018-01-27T07:47:41.302Z,1024.82
2018-01-27T07:48:21.917Z,1024.84
2018-01-27T07:49:02.562Z,1024.85
2018-01-27T07:49:43.123Z,1024.86
2018-01-27T07:50:23.755Z,1024.84
2018-01-27T07:51:04.316Z,1024.88
2018-01-27T07:51:44.934Z,1024.87
2018-01-27T07:52:25.540Z,1024.87
2018-01-27T07:53:06.129Z,1024.88
2018-01-27T07:53:46.714Z,1024.91
2018-01-27T07:54:27.338Z,1024.94
2018-01-27T07:55:07.927Z,1024.94
2018-01-27T07:55:48.538Z,1024.91
2018-01-27T07:56:29.133Z,1024.97
2018-01-27T07:57:09.744Z,1024.94
2018-01-27T07:57:50.404Z,1024.97
2018-01-27T07:58:31.001Z,1024.94
2018-01-27T07:59:11.639Z,1024.94
2018-01-27T07:59:52.224Z,1025.01
2018-01-27T08:00:32.799Z,1024.99
2018-01-27T08:01:13.407Z,1025.01
2018-01-27T08:01:54.062Z,1025.04
2018-01-27T08:02:34.657Z,1025.05
2018-01-27T08:03:15.270Z,1025.07
2018-01-27T08:03:55.870Z,1025.06
2018-01-27T08:04:36.473Z,1025.03
2018-01-27T08:05:17.061Z,1025.06
2018-01-27T08:05:57.654Z,1025.06
2018-01-27T08:06:38.250Z,1025.05
2018-01-27T08:07:18.894Z,1025.06
2018-01-27T08:07:59.470Z,1025.08
2018-01-27T08:08:40.076Z,1025.12
2018-01-27T08:09:20.707Z,1025.1
2018-01-27T08:10:01.320Z,1025.13
2018-01-27T08:10:41.946Z,1025.12
2018-01-27T08:11:22.551Z,1025.2
2018-01-27T08:12:03.138Z,1025.13
2018-01-27T08:12:43.790Z,1025.14
2018-01-27T08:13:24.348Z,1025.15
2018-01-27T08:14:04.972Z,1025.13
2018-01-27T08:14:45.561Z,1025.09
2018-01-27T08:15:26.163Z,1025.13